Time;durP1;ratioP1;P1;durP2;ratioP2;P2;SDS_P1;SDS_P2;PMS_P1;PMS_P2;Temp;Humidity;BMP_temperature;BMP_pressure;BME280_temperature;BME280_humidity;BME280_pressure;Samples;Min_cycle;Max_cycle;Signal;HPM_P1;HPM_P2
2023/06/09 00:02:13;;;;;;;3.83;3.63;;;;;;;19.15;75.24;94831.88;4959345;28;20201;-66
2023/06/09 00:04:40;;;;;;;4.93;3.28;;;;;;;19.32;74.78;94830.69;4961031;28;20280;-62
2023/06/09 00:07:07;;;;;;;6.97;3.50;;;;;;;19.22;74.99;94829.72;4957692;28;20244;-68
2023/06/09 00:09:33;;;;;;;4.53;4.13;;;;;;;19.11;75.52;94833.03;4962174;28;20729;-63
2023/06/09 00:12:02;;;;;;;4.63;4.10;;;;;;;19.24;75.37;94830.41;4962360;28;20283;-65
2023/06/09 00:14:28;;;;;;;4.03;3.72;;;;;;;19.15;75.62;94836.22;4963404;28;21066;-61
2023/06/09 00:16:56;;;;;;;3.97;3.78;;;;;;;19.11;75.84;94832.19;4959916;28;20226;-62
2023/06/09 00:19:24;;;;;;;4.05;3.75;;;;;;;19.11;75.85;94832.19;4961363;28;20839;-67
2023/06/09 00:21:51;;;;;;;7.07;3.55;;;;;;;19.07;76.27;94839.31;4961868;28;20599;-68
2023/06/09 00:24:19;;;;;;;3.65;3.35;;;;;;;19.00;76.25;94835.56;4962767;28;20213;-64
2023/06/09 00:26:46;;;;;;;4.43;4.13;;;;;;;19.01;76.63;94837.19;4960921;28;20213;-64
2023/06/09 00:29:17;;;;;;;6.57;3.95;;;;;;;19.09;76.56;94834.06;4963274;28;20224;-67
2023/06/09 00:31:44;;;;;;;4.90;3.72;;;;;;;19.08;76.39;94833.25;4959439;28;20247;-64
2023/06/09 00:34:11;;;;;;;5.10;3.38;;;;;;;19.02;76.63;94829.38;4960870;28;20653;-68
2023/06/09 00:36:38;;;;;;;3.28;3.08;;;;;;;18.96;77.06;94826.38;4963433;28;20205;-65
2023/06/09 00:39:05;;;;;;;3.55;3.35;;;;;;;18.90;76.85;94814.75;4958300;28;20345;-66
2023/06/09 00:41:36;;;;;;;3.97;3.78;;;;;;;18.94;77.32;94825.69;4961840;28;20272;-65
2023/06/09 00:44:03;;;;;;;4.60;4.20;;;;;;;18.88;77.59;94828.66;4961529;28;20236;-65
2023/06/09 00:46:31;;;;;;;5.70;3.55;;;;;;;18.84;71.27;94825.47;4963853;28;21567;-66
2023/06/09 00:48:58;;;;;;;6.43;3.58;;;;;;;18.80;68.62;94830.97;4961753;28;20303;-64
2023/06/09 00:51:25;;;;;;;3.78;2.80;;;;;;;18.77;66.44;94831.19;4961566;28;20320;-66
2023/06/09 00:53:52;;;;;;;5.78;3.45;;;;;;;18.76;65.18;94825.22;4959583;28;20411;-64
2023/06/09 00:56:23;;;;;;;4.03;3.28;;;;;;;18.65;65.35;94819.97;4959728;28;21565;-64
2023/06/09 00:58:50;;;;;;;4.07;3.78;;;;;;;18.59;65.19;94825.50;4960715;28;20213;-68
2023/06/09 01:01:16;;;;;;;3.58;3.38;;;;;;;18.58;64.95;94826.44;4960736;28;20348;-68
2023/06/09 01:03:46;;;;;;;8.63;3.63;;;;;;;18.49;64.95;94830.47;4960686;28;20212;-62
2023/06/09 01:06:23;;;;;;;4.60;4.20;;;;;;;18.39;64.61;94808.84;4959887;28;20792;-67
2023/06/09 01:08:56;;;;;;;5.18;3.63;;;;;;;18.50;64.63;94826.97;4962862;28;20220;-63
2023/06/09 01:11:41;;;;;;;6.20;3.63;;;;;;;18.44;64.80;94826.56;4961893;28;20213;-65
2023/06/09 01:14:14;;;;;;;3.35;3.05;;;;;;;18.41;64.90;94824.19;4960811;28;20303;-67
2023/06/09 01:16:48;;;;;;;5.75;3.10;;;;;;;18.40;64.74;94827.69;4960034;28;20216;-63
2023/06/09 01:19:27;;;;;;;5.13;3.65;;;;;;;18.25;64.46;94817.53;4960699;28;20847;-63
2023/06/09 01:21:55;;;;;;;4.40;3.45;;;;;;;18.17;64.60;94824.91;4960061;28;20205;-64
2023/06/09 01:24:35;;;;;;;3.03;2.78;;;;;;;18.11;64.81;94825.31;4960656;28;21043;-65
2023/06/09 01:27:05;;;;;;;3.30;3.08;;;;;;;18.06;64.90;94829.97;4961694;28;20209;-64
2023/06/09 01:29:34;;;;;;;2.95;2.75;;;;;;;17.97;65.27;94838.28;4959353;28;20213;-64
2023/06/09 01:32:03;;;;;;;2.88;2.67;;;;;;;17.95;65.27;94840.13;4960641;28;20228;-63
2023/06/09 01:34:30;;;;;;;2.83;2.63;;;;;;;17.95;65.11;94845.28;4962563;28;20240;-61
2023/06/09 01:36:58;;;;;;;3.08;2.88;;;;;;;17.79;65.63;94839.50;4961252;28;20699;-62
2023/06/09 01:39:26;;;;;;;3.40;3.13;;;;;;;17.76;65.77;94843.09;4961305;28;20769;-64
2023/06/09 01:41:52;;;;;;;3.47;3.20;;;;;;;17.75;65.86;94849.16;4961122;28;20287;-63
2023/06/09 01:44:20;;;;;;;4.20;3.10;;;;;;;17.86;65.62;94851.00;4961868;28;20313;-69
2023/06/09 01:46:47;;;;;;;3.40;3.10;;;;;;;17.83;65.70;94843.47;4961075;28;20747;-67
2023/06/09 01:49:21;;;;;;;3.42;3.13;;;;;;;17.83;65.69;94840.91;4959759;28;20215;-65
2023/06/09 01:52:02;;;;;;;4.05;3.42;;;;;;;17.76;66.07;94840.50;4960727;28;20320;-63
2023/06/09 01:54:35;;;;;;;3.40;3.08;;;;;;;17.74;66.24;94841.53;4961444;28;20561;-63
2023/06/09 01:57:07;;;;;;;3.95;3.05;;;;;;;17.50;66.84;94844.72;4959967;28;20312;-67
2023/06/09 01:59:41;;;;;;;3.72;3.38;;;;;;;17.47;66.96;94844.94;4960752;28;20812;-62
2023/06/09 02:02:12;;;;;;;3.40;3.13;;;;;;;17.51;67.01;94845.56;4961363;28;20252;-60
2023/06/09 02:04:41;;;;;;;5.65;2.80;;;;;;;17.49;67.10;94848.22;4960722;28;20236;-65
2023/06/09 02:07:09;;;;;;;2.72;2.53;;;;;;;17.56;66.79;94839.22;4962429;28;20201;-66
2023/06/09 02:09:36;;;;;;;3.80;3.40;;;;;;;17.45;66.97;94839.06;4960176;28;20222;-62
2023/06/09 02:12:04;;;;;;;5.28;3.42;;;;;;;17.42;67.13;94844.38;4961051;28;20216;-65
2023/06/09 02:14:34;;;;;;;5.32;2.78;;;;;;;17.56;66.83;94835.81;4961272;28;20216;-67
2023/06/09 02:17:03;;;;;;;3.33;3.10;;;;;;;17.47;67.11;94849.25;4960765;28;21998;-67
2023/06/09 02:19:30;;;;;;;3.92;3.55;;;;;;;17.31;67.25;94823.72;4960780;28;20209;-65
2023/06/09 02:21:57;;;;;;;5.10;3.20;;;;;;;17.27;67.92;94843.63;4960913;28;20213;-65
2023/06/09 02:24:28;;;;;;;3.83;2.80;;;;;;;17.12;68.57;94849.72;4961280;28;20363;-62
2023/06/09 02:26:56;;;;;;;4.90;3.45;;;;;;;17.26;67.97;94848.84;4961574;28;20201;-69
2023/06/09 02:29:24;;;;;;;3.22;2.95;;;;;;;17.21;68.16;94844.00;4960774;28;20707;-67
2023/06/09 02:31:51;;;;;;;4.68;3.35;;;;;;;17.23;68.23;94843.91;4960303;28;20228;-66
2023/06/09 02:34:20;;;;;;;3.00;2.67;;;;;;;17.22;68.24;94842.25;4959897;28;20327;-67
2023/06/09 02:36:48;;;;;;;3.22;3.03;;;;;;;17.24;68.19;94845.56;4959833;28;20239;-69
2023/06/09 02:39:15;;;;;;;3.40;3.08;;;;;;;17.20;68.27;94852.63;4959160;28;20328;-64
2023/06/09 02:41:42;;;;;;;3.60;3.40;;;;;;;17.21;68.20;94843.19;4959455;28;20600;-67
2023/06/09 02:44:09;;;;;;;3.83;3.28;;;;;;;17.11;68.60;94842.09;4959546;28;20308;-63
2023/06/09 02:46:39;;;;;;;3.53;3.33;;;;;;;17.24;68.50;94853.25;4964822;28;20212;-63
2023/06/09 02:49:05;;;;;;;3.97;3.67;;;;;;;17.13;68.31;94850.53;4962784;28;20209;-64
2023/06/09 02:51:33;;;;;;;3.67;2.88;;;;;;;17.14;68.46;94847.03;4962454;28;20237;-66
2023/06/09 02:54:00;;;;;;;4.07;3.22;;;;;;;17.10;68.77;94846.41;4963394;28;20253;-65
2023/06/09 02:56:27;;;;;;;3.28;2.97;;;;;;;17.10;68.74;94848.16;4962948;28;20204;-69
2023/06/09 02:58:54;;;;;;;4.05;3.60;;;;;;;17.07;68.68;94850.94;4962391;28;20212;-62
2023/06/09 03:01:22;;;;;;;3.78;2.83;;;;;;;16.89;69.36;94850.31;4961312;28;20381;-63
2023/06/09 03:03:49;;;;;;;3.45;3.15;;;;;;;17.06;69.17;94854.44;4969168;28;20197;-61
2023/06/09 03:06:19;;;;;;;6.13;3.13;;;;;;;16.97;68.82;94845.53;4966670;28;20204;-66
2023/06/09 03:08:47;;;;;;;6.38;3.60;;;;;;;16.95;69.10;94845.63;4966903;28;20680;-61
2023/06/09 03:11:14;;;;;;;4.03;3.22;;;;;;;16.98;68.86;94850.59;4970004;28;20746;-66
2023/06/09 03:13:41;;;;;;;5.32;2.97;;;;;;;17.02;68.80;94835.81;4967215;28;20282;-62
2023/06/09 03:16:08;;;;;;;3.75;3.45;;;;;;;16.94;68.90;94843.97;4971814;28;20208;-67
2023/06/09 03:18:34;;;;;;;5.72;3.15;;;;;;;16.96;68.52;94849.03;4969371;28;20201;-64
2023/06/09 03:21:04;;;;;;;4.18;2.97;;;;;;;17.01;68.38;94839.31;4966904;28;20781;-65
2023/06/09 03:23:31;;;;;;;3.95;3.33;;;;;;;17.12;67.67;94818.06;4967485;28;20347;-63
2023/06/09 03:25:59;;;;;;;3.97;3.67;;;;;;;17.34;67.17;94844.88;4983920;28;20212;-63
2023/06/09 03:28:26;;;;;;;3.60;3.38;;;;;;;17.52;66.96;94840.31;4980701;28;20213;-64
2023/06/09 03:30:55;;;;;;;4.10;3.83;;;;;;;18.12;65.96;94837.25;4980715;28;20588;-62
2023/06/09 03:33:24;;;;;;;5.60;3.63;;;;;;;19.69;61.49;94837.44;4983961;28;20239;-63
2023/06/09 03:35:50;;;;;;;3.28;3.08;;;;;;;20.59;58.01;94835.06;4974178;28;20280;-66
2023/06/09 03:38:18;;;;;;;6.43;3.45;;;;;;;20.46;58.37;94826.63;4968035;28;20212;-65
2023/06/09 03:40:46;;;;;;;3.50;3.20;;;;;;;20.04;59.43;94834.03;4968732;28;20239;-62
2023/06/09 03:43:14;;;;;;;3.60;3.30;;;;;;;19.67;60.61;94841.06;4970442;28;20734;-64
2023/06/09 03:45:41;;;;;;;3.67;3.47;;;;;;;19.79;60.24;94840.19;4968150;28;20683;-64
2023/06/09 03:48:08;;;;;;;3.78;3.47;;;;;;;20.66;57.25;94837.06;4975385;28;20212;-63
2023/06/09 03:50:35;;;;;;;8.15;7.35;;;;;;;21.02;56.55;94838.56;4978370;28;20225;-65
2023/06/09 03:53:01;;;;;;;8.18;7.07;;;;;;;20.81;56.47;94844.56;4982034;28;20223;-64
2023/06/09 03:55:31;;;;;;;9.25;6.50;;;;;;;20.43;57.63;94840.56;4983451;28;20205;-64
2023/06/09 03:57:57;;;;;;;6.40;4.80;;;;;;;20.09;59.20;94846.56;4970190;28;20200;-66
2023/06/09 04:00:26;;;;;;;12.00;9.50;;;;;;;19.81;60.64;94847.78;4964815;28;20716;-68
2023/06/09 04:02:53;;;;;;;15.20;8.10;;;;;;;19.58;61.72;94846.88;4967206;28;20201;-70
2023/06/09 04:05:19;;;;;;;7.10;6.10;;;;;;;19.35;62.89;94851.06;4968363;28;20208;-65
2023/06/09 04:07:46;;;;;;;7.28;4.13;;;;;;;19.34;63.27;94841.69;4968887;28;20232;-68
2023/06/09 04:10:13;;;;;;;8.40;4.57;;;;;;;19.66;62.83;94842.00;4968374;28;20240;-63
2023/06/09 04:12:41;;;;;;;4.75;4.18;;;;;;;19.91;62.18;94848.78;4965399;28;20264;-65
2023/06/09 04:15:09;;;;;;;7.75;4.63;;;;;;;19.94;62.02;94848.53;4962837;28;20304;-63
2023/06/09 04:17:37;;;;;;;4.15;3.88;;;;;;;20.04;61.90;94845.16;4963137;28;20231;-64
2023/06/09 04:20:07;;;;;;;9.73;4.15;;;;;;;20.35;61.14;94848.84;4963456;28;20213;-64
2023/06/09 04:22:33;;;;;;;7.22;5.88;;;;;;;20.86;59.89;94863.94;4962604;28;20709;-68
2023/06/09 04:25:01;;;;;;;11.90;4.85;;;;;;;21.60;57.67;94840.91;4961205;28;20308;-65
2023/06/09 04:27:29;;;;;;;5.47;4.97;;;;;;;22.51;55.75;94858.47;4962027;28;20885;-66
2023/06/09 04:29:57;;;;;;;5.90;4.55;;;;;;;23.28;53.60;94856.16;4960895;28;20209;-64
2023/06/09 04:32:26;;;;;;;10.02;5.03;;;;;;;23.96;51.69;94851.91;4963029;28;21354;-68
2023/06/09 04:34:54;;;;;;;21.02;17.42;;;;;;;24.64;49.93;94861.25;4960800;28;20220;-66
2023/06/09 04:37:24;;;;;;;21.15;10.55;;;;;;;25.52;46.77;94859.88;4961108;28;20746;-68
2023/06/09 04:39:51;;;;;;;10.10;6.90;;;;;;;26.14;45.71;94862.59;4961080;28;20239;-70
2023/06/09 04:42:19;;;;;;;12.45;6.93;;;;;;;26.84;44.32;94856.41;4961973;28;20798;-70
2023/06/09 04:44:47;;;;;;;43.35;25.48;;;;;;;27.41;43.07;94862.72;4960788;28;20205;-70
2023/06/09 04:47:17;;;;;;;40.22;23.33;;;;;;;27.94;41.77;94855.50;4961828;28;20232;-69
2023/06/09 04:49:46;;;;;;;13.88;8.68;;;;;;;28.47;39.83;94864.66;4961405;28;21914;-66
2023/06/09 04:52:17;;;;;;;6.28;5.68;;;;;;;28.87;38.96;94863.81;4962898;28;20236;-66
2023/06/09 04:54:44;;;;;;;13.45;11.68;;;;;;;28.91;38.88;94865.94;4962002;28;20235;-69
2023/06/09 04:57:11;;;;;;;16.30;13.27;;;;;;;28.69;39.13;94843.06;4961040;28;20303;-69
2023/06/09 04:59:39;;;;;;;7.15;5.90;;;;;;;28.63;39.66;94862.84;4961757;28;20216;-70
2023/06/09 05:02:06;;;;;;;6.53;4.40;;;;;;;28.50;40.06;94859.09;4960879;28;20232;-70
2023/06/09 05:04:33;;;;;;;10.55;4.20;;;;;;;28.52;39.52;94862.38;4960449;28;20212;-68
2023/06/09 05:07:00;;;;;;;7.07;4.90;;;;;;;28.42;39.76;94868.59;4959484;28;20301;-67
2023/06/09 05:09:28;;;;;;;5.40;4.88;;;;;;;28.71;39.03;94862.00;4959772;28;20819;-65
2023/06/09 05:11:55;;;;;;;9.65;4.28;;;;;;;29.01;38.10;94858.69;4959650;28;20703;-67
2023/06/09 05:14:22;;;;;;;5.65;4.20;;;;;;;28.84;38.27;94851.88;4960018;28;20820;-69
2023/06/09 05:16:49;;;;;;;6.50;4.07;;;;;;;28.50;38.73;94849.47;4961495;28;20298;-69
2023/06/09 05:19:15;;;;;;;7.60;4.68;;;;;;;27.78;39.85;94859.72;4959771;28;20201;-67
2023/06/09 05:21:45;;;;;;;9.35;4.25;;;;;;;27.32;40.93;94848.00;4960102;28;20240;-67
2023/06/09 05:24:12;;;;;;;13.73;4.53;;;;;;;26.73;42.17;94852.28;4960426;28;20213;-67
2023/06/09 05:26:40;;;;;;;5.60;4.78;;;;;;;26.34;42.89;94859.69;4960544;28;20296;-69
2023/06/09 05:29:06;;;;;;;11.27;4.30;;;;;;;25.87;43.48;94863.50;4960735;28;20293;-69
2023/06/09 05:31:33;;;;;;;9.52;4.75;;;;;;;25.37;44.47;94867.38;4959284;28;20885;-67
2023/06/09 05:34:00;;;;;;;12.70;4.88;;;;;;;25.24;44.59;94845.28;4960781;28;20380;-70
2023/06/09 05:36:26;;;;;;;7.32;4.60;;;;;;;25.03;45.19;94859.34;4960369;28;20209;-69
2023/06/09 05:38:53;;;;;;;11.93;4.43;;;;;;;25.08;45.50;94854.53;4960051;28;20364;-67
2023/06/09 05:41:20;;;;;;;6.45;4.57;;;;;;;25.37;44.71;94845.75;4960055;28;20713;-69
2023/06/09 05:43:48;;;;;;;6.65;4.40;;;;;;;25.79;43.60;94840.00;4960717;28;20679;-67
2023/06/09 05:46:15;;;;;;;10.38;4.70;;;;;;;26.46;43.08;94836.81;4961099;28;20206;-66
2023/06/09 05:48:42;;;;;;;5.03;4.47;;;;;;;27.65;41.10;94841.09;4960092;28;20308;-71
2023/06/09 05:51:08;;;;;;;9.52;4.70;;;;;;;29.35;37.42;94834.00;4961345;28;20307;-69
2023/06/09 05:53:35;;;;;;;10.38;4.80;;;;;;;30.89;34.61;94835.47;4959806;28;20970;-68
2023/06/09 05:56:02;;;;;;;8.43;5.25;;;;;;;32.16;32.43;94822.78;4959800;28;20816;-71
2023/06/09 05:58:33;;;;;;;8.38;4.25;;;;;;;33.03;30.99;94826.69;4959053;28;20208;-70
2023/06/09 06:01:03;;;;;;;7.00;5.30;;;;;;;33.15;29.92;94829.59;4961023;28;20219;-69
2023/06/09 06:03:32;;;;;;;6.45;4.95;;;;;;;32.77;31.06;94831.78;4960244;28;20300;-66
2023/06/09 06:05:59;;;;;;;8.23;5.45;;;;;;;32.94;30.75;94827.84;4960499;28;20209;-70
2023/06/09 06:08:26;;;;;;;10.52;4.55;;;;;;;34.18;28.55;94823.19;4960428;28;20232;-69
2023/06/09 06:10:52;;;;;;;9.38;4.68;;;;;;;35.10;27.58;94819.69;4958629;28;20355;-72
2023/06/09 06:13:19;;;;;;;7.75;4.85;;;;;;;35.57;27.05;94809.78;4960260;28;20324;-71
2023/06/09 06:15:46;;;;;;;12.77;4.32;;;;;;;36.01;25.99;94811.56;4960055;28;20231;-67
2023/06/09 06:18:14;;;;;;;4.80;4.43;;;;;;;37.25;24.01;94814.13;4959737;28;20332;-70
2023/06/09 06:20:41;;;;;;;6.63;4.10;;;;;;;39.70;22.08;94814.44;4959768;28;20694;-72
2023/06/09 06:23:08;;;;;;;6.60;4.22;;;;;;;42.24;19.95;94818.06;4960306;28;20213;-66
2023/06/09 06:25:36;;;;;;;9.07;4.93;;;;;;;44.80;17.84;94808.91;4960162;28;20204;-69
2023/06/09 06:28:03;;;;;;;7.18;4.38;;;;;;;46.97;15.95;94806.06;4959671;28;20213;-67
2023/06/09 06:30:30;;;;;;;6.85;4.93;;;;;;;47.89;15.01;94805.78;4959762;28;20344;-70
2023/06/09 06:32:57;;;;;;;6.78;5.25;;;;;;;48.54;15.04;94807.78;4959734;28;20212;-68
2023/06/09 06:35:27;;;;;;;11.45;4.55;;;;;;;49.26;14.08;94802.69;4960250;28;20295;-70
2023/06/09 06:37:54;;;;;;;9.27;5.65;;;;;;;49.71;13.86;94807.19;4957924;28;20205;-71
2023/06/09 06:40:21;;;;;;;8.70;5.30;;;;;;;49.78;14.14;94805.94;4956505;28;20394;-70
2023/06/09 06:42:47;;;;;;;8.93;5.10;;;;;;;50.18;13.14;94805.06;4961219;28;20326;-71
2023/06/09 06:45:14;;;;;;;12.98;6.38;;;;;;;50.32;13.08;94803.09;4959435;28;20228;-72
2023/06/09 06:47:42;;;;;;;10.10;6.43;;;;;;;50.27;13.39;94807.84;4960613;28;20239;-68
2023/06/09 06:50:10;;;;;;;11.13;4.78;;;;;;;50.70;13.21;94802.75;4958873;28;20204;-70
2023/06/09 06:52:38;;;;;;;7.43;4.32;;;;;;;50.83;13.13;94801.84;4960002;28;20326;-69
2023/06/09 06:55:07;;;;;;;10.07;4.70;;;;;;;50.37;12.81;94794.06;4958233;28;20315;-68
2023/06/09 06:57:34;;;;;;;16.20;7.10;;;;;;;50.52;12.69;94801.00;4958969;28;20554;-69
2023/06/09 07:00:00;;;;;;;12.98;7.60;;;;;;;50.52;12.93;94801.00;4956835;28;20311;-71
2023/06/09 07:02:27;;;;;;;26.80;14.18;;;;;;;50.66;13.03;94797.16;4959063;28;20283;-71
2023/06/09 07:04:55;;;;;;;6.65;6.00;;;;;;;50.88;12.99;94804.41;4958958;28;20656;-70
2023/06/09 07:07:25;;;;;;;6.90;4.70;;;;;;;51.30;12.72;94802.22;4958442;28;20250;-69
2023/06/09 07:09:53;;;;;;;6.22;5.32;;;;;;;51.39;12.29;94803.06;4958326;28;20212;-71
2023/06/09 07:12:21;;;;;;;10.07;5.45;;;;;;;50.95;12.67;94799.38;4959731;28;20694;-71
2023/06/09 07:14:48;;;;;;;7.20;5.03;;;;;;;51.68;12.13;94799.78;4960480;28;20732;-72
2023/06/09 07:17:14;;;;;;;7.75;5.03;;;;;;;51.26;12.11;94793.94;4960199;28;20334;-71
2023/06/09 07:19:41;;;;;;;9.98;4.75;;;;;;;50.57;12.72;94792.75;4959865;28;20228;-71
2023/06/09 07:22:08;;;;;;;7.20;5.50;;;;;;;50.84;12.56;94787.19;4959379;28;20219;-70
2023/06/09 07:24:34;;;;;;;8.15;4.90;;;;;;;51.24;12.42;94795.31;4959954;28;20311;-71
2023/06/09 07:27:02;;;;;;;7.50;5.05;;;;;;;51.66;12.77;94794.69;4961436;28;20287;-71
2023/06/09 07:29:29;;;;;;;6.13;5.10;;;;;;;51.46;12.54;94805.31;4958565;28;20212;-68
2023/06/09 07:31:56;;;;;;;5.35;4.78;;;;;;;51.80;12.35;94794.53;4960135;28;20300;-68
2023/06/09 07:34:26;;;;;;;4.60;4.38;;;;;;;51.57;12.38;94791.13;4958991;28;20229;-67
2023/06/09 07:36:53;;;;;;;8.82;4.82;;;;;;;51.04;12.35;94797.50;4960257;28;20295;-69
2023/06/09 07:39:21;;;;;;;5.13;4.57;;;;;;;50.27;12.66;94787.00;4959537;28;20361;-68
2023/06/09 07:41:47;;;;;;;6.07;4.10;;;;;;;50.54;12.95;94782.56;4958732;28;20251;-69
2023/06/09 07:44:16;;;;;;;4.72;4.13;;;;;;;51.38;12.51;94784.41;4959204;28;20263;-67
2023/06/09 07:46:42;;;;;;;5.00;4.50;;;;;;;51.57;12.77;94785.72;4960430;28;20299;-71
2023/06/09 07:49:09;;;;;;;7.72;4.18;;;;;;;50.91;13.17;94782.13;4960527;28;20282;-70
2023/06/09 07:51:37;;;;;;;8.43;4.57;;;;;;;50.25;13.05;94775.69;4961937;28;20917;-68
2023/06/09 07:54:04;;;;;;;8.68;4.55;;;;;;;49.66;12.89;94782.97;4964184;28;20315;-70
2023/06/09 07:56:31;;;;;;;7.80;4.53;;;;;;;49.15;13.77;94775.09;4962874;28;20212;-69
2023/06/09 07:58:58;;;;;;;4.40;4.10;;;;;;;50.01;13.51;94758.97;4962628;28;20717;-68
2023/06/09 08:01:26;;;;;;;4.32;3.92;;;;;;;50.49;12.61;94771.88;4962636;28;20206;-70
2023/06/09 08:03:53;;;;;;;7.00;4.63;;;;;;;51.45;12.40;94776.63;4963057;28;20287;-70
2023/06/09 08:06:20;;;;;;;6.97;4.65;;;;;;;51.92;12.39;94772.22;4962348;28;20220;-69
2023/06/09 08:08:46;;;;;;;10.23;4.88;;;;;;;51.81;12.59;94776.34;4962397;28;20646;-67
2023/06/09 08:11:13;;;;;;;7.47;4.93;;;;;;;51.61;12.64;94778.59;4962156;28;20343;-67
2023/06/09 08:13:40;;;;;;;9.48;4.40;;;;;;;51.48;12.63;94774.06;4961301;28;20888;-69
2023/06/09 08:16:07;;;;;;;6.15;4.18;;;;;;;52.14;11.94;94765.84;4962051;28;20219;-70
2023/06/09 08:18:35;;;;;;;5.53;4.53;;;;;;;52.02;12.28;94774.63;4963350;28;20663;-71
2023/06/09 08:21:02;;;;;;;5.97;4.70;;;;;;;51.92;11.91;94774.94;4962951;28;20219;-69
2023/06/09 08:23:28;;;;;;;12.02;4.43;;;;;;;51.97;12.29;94769.41;4962881;28;20212;-66
2023/06/09 08:25:55;;;;;;;5.13;4.30;;;;;;;51.01;12.56;94765.63;4966089;28;20932;-68
2023/06/09 08:28:22;;;;;;;4.50;4.15;;;;;;;50.69;13.34;94760.56;4969587;28;20330;-68
2023/06/09 08:30:49;;;;;;;5.55;4.22;;;;;;;51.07;12.46;94752.75;4968185;28;22142;-67
2023/06/09 08:33:15;;;;;;;6.32;4.30;;;;;;;49.50;13.19;94757.38;4964230;28;20205;-69
2023/06/09 08:35:43;;;;;;;6.57;4.60;;;;;;;49.32;13.83;94758.31;4962419;28;20232;-66
2023/06/09 08:38:10;;;;;;;5.80;4.78;;;;;;;50.18;13.25;94755.59;4960874;28;20215;-67
2023/06/09 08:40:37;;;;;;;4.72;4.38;;;;;;;49.83;13.20;94752.59;4959200;28;20232;-69
2023/06/09 08:43:05;;;;;;;5.75;5.05;;;;;;;46.82;14.76;94751.63;4959833;28;20236;-69
2023/06/09 08:45:35;;;;;;;12.13;4.72;;;;;;;45.51;16.42;94744.28;4959412;28;20208;-68
2023/06/09 08:48:03;;;;;;;10.13;4.50;;;;;;;45.97;16.53;94746.72;4960240;28;20216;-67
2023/06/09 08:50:32;;;;;;;7.18;4.75;;;;;;;47.46;15.16;94743.09;4964757;28;20331;-69
2023/06/09 08:53:01;;;;;;;5.53;4.88;;;;;;;48.58;14.01;94744.06;4965379;28;20216;-66
2023/06/09 08:55:28;;;;;;;8.68;4.70;;;;;;;48.10;14.42;94738.09;4965475;28;20324;-67
2023/06/09 08:57:55;;;;;;;5.80;4.95;;;;;;;47.89;14.38;94733.03;4963739;28;20342;-68
2023/06/09 09:00:22;;;;;;;7.70;5.05;;;;;;;46.24;15.35;94730.91;4959715;28;20262;-70
2023/06/09 09:02:49;;;;;;;7.35;5.22;;;;;;;45.60;15.87;94728.41;4960855;28;20579;-69
2023/06/09 09:05:15;;;;;;;7.15;4.88;;;;;;;45.44;15.99;94738.41;4960523;28;20201;-67
2023/06/09 09:07:45;;;;;;;8.82;4.57;;;;;;;45.06;16.47;94729.97;4960762;28;20208;-70
2023/06/09 09:10:13;;;;;;;5.80;4.47;;;;;;;44.69;16.98;94724.19;4960723;28;20287;-69
2023/06/09 09:12:47;;;;;;;7.38;4.93;;;;;;;45.01;16.12;94724.66;4961662;28;20213;-69
2023/06/09 09:15:14;;;;;;;5.30;4.90;;;;;;;44.82;16.86;94712.91;4959714;28;20321;-69
2023/06/09 09:17:41;;;;;;;6.40;4.88;;;;;;;44.68;16.32;94698.47;4959223;28;20205;-69
2023/06/09 09:20:10;;;;;;;6.82;4.88;;;;;;;44.41;17.39;94720.25;4959744;28;20205;-66
2023/06/09 09:22:44;;;;;;;7.28;4.65;;;;;;;44.08;17.83;94716.22;4959120;28;20323;-69
2023/06/09 09:25:20;;;;;;;6.55;5.07;;;;;;;44.29;17.32;94706.31;4959294;28;20339;-65
2023/06/09 09:27:59;;;;;;;11.60;5.50;;;;;;;43.78;17.29;94706.31;4960142;28;20287;-67
2023/06/09 09:30:41;;;;;;;4.85;4.47;;;;;;;42.67;17.72;94706.69;4959678;28;20208;-68
2023/06/09 09:33:09;;;;;;;5.35;4.85;;;;;;;42.31;19.25;94703.81;4960090;28;20215;-67
2023/06/09 09:35:37;;;;;;;6.03;4.57;;;;;;;41.26;19.29;94693.78;4957692;28;20224;-68
2023/06/09 09:38:04;;;;;;;8.93;4.72;;;;;;;40.38;21.00;94706.22;4959129;28;20205;-70
2023/06/09 09:40:31;;;;;;;7.22;4.93;;;;;;;39.34;21.19;94701.28;4958763;28;20336;-74
2023/06/09 09:43:02;;;;;;;4.95;4.40;;;;;;;38.26;22.87;94703.78;4962724;28;20201;-68
2023/06/09 09:45:37;;;;;;;4.80;4.40;;;;;;;37.24;24.37;94705.72;4960021;28;20292;-74
2023/06/09 09:48:09;;;;;;;8.20;4.30;;;;;;;36.41;24.60;94696.44;4961765;28;20649;-71
2023/06/09 09:50:37;;;;;;;24.70;20.13;;;;;;;35.03;27.23;94697.41;4963738;28;20235;-72
2023/06/09 09:53:04;;;;;;;11.85;10.65;;;;;;;33.95;28.53;94704.13;4962316;28;20641;-71
2023/06/09 09:55:31;;;;;;;20.58;13.15;;;;;;;32.91;30.29;94701.91;4962549;28;20237;-66
2023/06/09 09:58:02;;;;;;;13.35;10.93;;;;;;;32.00;31.95;94702.94;4963790;28;20683;-67
2023/06/09 10:00:32;;;;;;;11.93;7.28;;;;;;;31.42;32.92;94702.25;4964743;28;20296;-68
2023/06/09 10:03:02;;;;;;;7.25;5.00;;;;;;;31.15;34.00;94697.72;4964346;28;20212;-74
2023/06/09 10:05:31;;;;;;;7.85;4.82;;;;;;;30.69;34.06;94697.97;4961533;28;20268;-68
2023/06/09 10:08:02;;;;;;;8.70;4.82;;;;;;;30.49;34.48;94694.25;4984154;28;20287;-76
2023/06/09 10:10:29;;;;;;;6.13;5.03;;;;;;;30.05;35.58;94701.13;4987808;28;20205;-69
2023/06/09 10:12:57;;;;;;;6.93;4.93;;;;;;;29.73;35.93;94696.13;4986605;28;20447;-73
2023/06/09 10:15:25;;;;;;;4.72;4.32;;;;;;;29.58;35.51;94703.16;4987700;28;20287;-68
2023/06/09 10:17:54;;;;;;;4.15;3.85;;;;;;;29.36;35.98;94697.72;4988688;28;20233;-70
2023/06/09 10:20:21;;;;;;;10.75;4.03;;;;;;;29.48;35.75;94692.91;4987973;28;20219;-68
2023/06/09 10:22:49;;;;;;;4.57;3.75;;;;;;;29.41;35.86;94697.25;4988391;28;20209;-70
2023/06/09 10:25:16;;;;;;;3.75;3.08;;;;;;;29.43;35.26;94695.25;4988478;28;20711;-69
2023/06/09 10:27:43;;;;;;;4.30;3.45;;;;;;;29.47;35.69;94686.03;4990585;28;20205;-67
2023/06/09 10:30:12;;;;;;;6.05;3.65;;;;;;;29.40;35.40;94693.00;4990468;28;20208;-67
2023/06/09 10:32:46;;;;;;;5.50;4.00;;;;;;;29.41;35.88;94687.56;4990528;28;20259;-67
2023/06/09 10:35:16;;;;;;;7.43;3.92;;;;;;;29.48;34.85;94685.06;4990698;28;20228;-68
2023/06/09 10:37:45;;;;;;;4.00;3.70;;;;;;;29.34;35.96;94681.38;4989311;28;20691;-67
2023/06/09 10:40:21;;;;;;;4.82;4.13;;;;;;;29.39;35.96;94683.47;4982066;28;20244;-68
2023/06/09 10:42:59;;;;;;;3.85;3.65;;;;;;;29.54;34.04;94676.50;4978768;28;20603;-67
2023/06/09 10:45:48;;;;;;;3.97;3.78;;;;;;;29.29;34.34;94683.69;4989073;28;20267;-68
2023/06/09 10:48:15;;;;;;;4.40;3.53;;;;;;;29.15;35.71;94681.03;4990396;28;20264;-70
2023/06/09 10:50:43;;;;;;;5.20;4.20;;;;;;;29.02;36.75;94678.97;4988691;28;20818;-67
2023/06/09 10:53:15;;;;;;;8.60;3.85;;;;;;;28.95;36.80;94671.03;4990527;28;20216;-70
2023/06/09 10:55:42;;;;;;;4.20;3.90;;;;;;;28.85;37.19;94672.22;4990311;28;20232;-74
2023/06/09 10:58:41;;;;;;;5.03;4.45;;;;;;;28.81;35.52;94669.13;4990102;28;20295;-68
2023/06/09 11:01:08;;;;;;;4.78;4.10;;;;;;;28.89;36.25;94665.66;4988814;28;20260;-68
2023/06/09 11:03:34;;;;;;;4.45;4.05;;;;;;;28.86;38.37;94658.97;4988546;28;20207;-69
2023/06/09 11:06:02;;;;;;;5.82;4.18;;;;;;;28.89;37.05;94660.44;4988665;28;20221;-66
2023/06/09 11:09:08;;;;;;;5.90;4.43;;;;;;;28.93;36.45;94662.53;4988346;28;20240;-67
2023/06/09 11:11:51;;;;;;;7.43;4.05;;;;;;;29.14;36.35;94651.44;4987984;28;20704;-67
2023/06/09 11:14:59;;;;;;;6.10;4.35;;;;;;;29.15;36.39;94647.00;4988339;28;20682;-74
2023/06/09 11:17:37;;;;;;;6.07;3.53;;;;;;;29.14;36.01;94648.81;4948345;28;20209;-67
2023/06/09 11:20:15;;;;;;;5.00;3.58;;;;;;;28.89;37.03;94645.56;4989666;28;20594;-68
2023/06/09 11:23:04;;;;;;;3.85;3.33;;;;;;;28.88;36.29;94643.91;4990976;28;20658;-68
2023/06/09 11:25:35;;;;;;;7.07;4.35;;;;;;;28.94;36.57;94637.19;4989648;28;20280;-67
2023/06/09 11:28:19;;;;;;;5.00;3.90;;;;;;;29.23;35.91;94646.94;4993736;28;20260;-68
2023/06/09 11:31:07;;;;;;;3.60;3.30;;;;;;;29.42;35.02;94641.28;4993321;28;20299;-68
2023/06/09 11:33:44;;;;;;;5.90;3.70;;;;;;;29.82;34.95;94641.88;4993584;28;20209;-67
2023/06/09 11:36:12;;;;;;;5.43;4.43;;;;;;;29.84;34.53;94618.94;4992770;28;20228;-68
2023/06/09 11:38:40;;;;;;;4.30;3.85;;;;;;;29.89;34.38;94642.81;4993861;28;20288;-69
2023/06/09 11:41:11;;;;;;;3.67;3.38;;;;;;;29.87;33.49;94650.03;4992014;28;20323;-68